sensor_id;sensor_type;location;lat;lon;timestamp;P1;durP1;ratioP1;P2;durP2;ratioP2
11078;SDS011;5592;49.234;7.268;2023-04-12T00:00:00;4.97;;;1.70;;
11078;SDS011;5592;49.234;7.268;2023-04-12T00:02:26;7.03;;;2.20;;
11078;SDS011;5592;49.234;7.268;2023-04-12T00:04:51;8.13;;;2.43;;
11078;SDS011;5592;49.234;7.268;2023-04-12T00:07:24;5.27;;;1.90;;
11078;SDS011;5592;49.234;7.268;2023-04-12T00:09:50;3.83;;;1.80;;
11078;SDS011;5592;49.234;7.268;2023-04-12T00:12:18;7.00;;;1.77;;
11078;SDS011;5592;49.234;7.268;2023-04-12T00:14:45;2.33;;;1.20;;
11078;SDS011;5592;49.234;7.268;2023-04-12T00:17:11;7.13;;;2.27;;
11078;SDS011;5592;49.234;7.268;2023-04-12T00:19:37;4.50;;;1.60;;
11078;SDS011;5592;49.234;7.268;2023-04-12T00:22:08;4.33;;;1.70;;
11078;SDS011;5592;49.234;7.268;2023-04-12T00:24:36;5.80;;;1.90;;
11078;SDS011;5592;49.234;7.268;2023-04-12T00:27:03;5.27;;;1.93;;
11078;SDS011;5592;49.234;7.268;2023-04-12T00:29:29;2.50;;;1.70;;
11078;SDS011;5592;49.234;7.268;2023-04-12T00:31:55;6.27;;;3.00;;
11078;SDS011;5592;49.234;7.268;2023-04-12T00:34:21;6.23;;;2.20;;
11078;SDS011;5592;49.234;7.268;2023-04-12T00:36:47;5.33;;;1.60;;
11078;SDS011;5592;49.234;7.268;2023-04-12T00:39:13;4.60;;;2.13;;
11078;SDS011;5592;49.234;7.268;2023-04-12T00:41:39;7.07;;;2.00;;
11078;SDS011;5592;49.234;7.268;2023-04-12T00:44:05;3.97;;;2.13;;
11078;SDS011;5592;49.234;7.268;2023-04-12T00:46:31;5.30;;;1.60;;
11078;SDS011;5592;49.234;7.268;2023-04-12T00:48:57;8.90;;;2.47;;
11078;SDS011;5592;49.234;7.268;2023-04-12T00:51:23;8.83;;;2.00;;
11078;SDS011;5592;49.234;7.268;2023-04-12T00:53:50;4.37;;;1.80;;
11078;SDS011;5592;49.234;7.268;2023-04-12T00:56:17;3.43;;;1.90;;
11078;SDS011;5592;49.234;7.268;2023-04-12T00:58:44;4.67;;;1.60;;
11078;SDS011;5592;49.234;7.268;2023-04-12T01:01:10;2.77;;;1.83;;
11078;SDS011;5592;49.234;7.268;2023-04-12T01:03:36;6.57;;;1.73;;
11078;SDS011;5592;49.234;7.268;2023-04-12T01:06:15;6.50;;;2.10;;
11078;SDS011;5592;49.234;7.268;2023-04-12T01:08:59;7.23;;;2.20;;
11078;SDS011;5592;49.234;7.268;2023-04-12T01:11:46;7.87;;;1.60;;
11078;SDS011;5592;49.234;7.268;2023-04-12T01:14:41;2.07;;;1.50;;
11078;SDS011;5592;49.234;7.268;2023-04-12T01:17:13;5.60;;;1.93;;
11078;SDS011;5592;49.234;7.268;2023-04-12T01:25:03;8.50;;;1.90;;
11078;SDS011;5592;49.234;7.268;2023-04-12T01:27:53;7.97;;;2.60;;
11078;SDS011;5592;49.234;7.268;2023-04-12T01:30:21;2.13;;;1.63;;
11078;SDS011;5592;49.234;7.268;2023-04-12T01:32:50;2.40;;;1.90;;
11078;SDS011;5592;49.234;7.268;2023-04-12T01:35:19;4.63;;;1.90;;
11078;SDS011;5592;49.234;7.268;2023-04-12T01:37:47;5.03;;;1.90;;
11078;SDS011;5592;49.234;7.268;2023-04-12T01:40:12;1.60;;;1.50;;
11078;SDS011;5592;49.234;7.268;2023-04-12T01:42:38;8.70;;;2.40;;
11078;SDS011;5592;49.234;7.268;2023-04-12T01:45:05;3.13;;;1.53;;
11078;SDS011;5592;49.234;7.268;2023-04-12T01:47:31;5.87;;;1.80;;
11078;SDS011;5592;49.234;7.268;2023-04-12T01:55:44;3.50;;;1.57;;
11078;SDS011;5592;49.234;7.268;2023-04-12T01:58:11;4.40;;;1.70;;
11078;SDS011;5592;49.234;7.268;2023-04-12T02:00:36;3.40;;;1.90;;
11078;SDS011;5592;49.234;7.268;2023-04-12T02:03:04;8.00;;;1.77;;
11078;SDS011;5592;49.234;7.268;2023-04-12T02:05:31;8.60;;;2.27;;
11078;SDS011;5592;49.234;7.268;2023-04-12T02:07:57;7.73;;;1.80;;
11078;SDS011;5592;49.234;7.268;2023-04-12T02:10:29;2.60;;;1.60;;
11078;SDS011;5592;49.234;7.268;2023-04-12T02:12:59;3.20;;;1.83;;
11078;SDS011;5592;49.234;7.268;2023-04-12T02:15:25;3.93;;;1.90;;
11078;SDS011;5592;49.234;7.268;2023-04-12T02:17:52;7.17;;;2.00;;
11078;SDS011;5592;49.234;7.268;2023-04-12T02:20:21;2.63;;;1.70;;
11078;SDS011;5592;49.234;7.268;2023-04-12T02:22:48;3.20;;;2.17;;
11078;SDS011;5592;49.234;7.268;2023-04-12T02:25:14;9.90;;;2.23;;
11078;SDS011;5592;49.234;7.268;2023-04-12T02:27:41;7.47;;;1.97;;
11078;SDS011;5592;49.234;7.268;2023-04-12T02:30:11;4.60;;;2.07;;
11078;SDS011;5592;49.234;7.268;2023-04-12T02:32:37;5.40;;;2.67;;
11078;SDS011;5592;49.234;7.268;2023-04-12T02:35:09;2.80;;;2.00;;
11078;SDS011;5592;49.234;7.268;2023-04-12T02:37:36;5.93;;;2.17;;
11078;SDS011;5592;49.234;7.268;2023-04-12T02:40:03;7.20;;;2.40;;
11078;SDS011;5592;49.234;7.268;2023-04-12T02:42:30;3.40;;;1.83;;
11078;SDS011;5592;49.234;7.268;2023-04-12T02:44:56;7.53;;;2.00;;
11078;SDS011;5592;49.234;7.268;2023-04-12T02:47:21;4.73;;;2.00;;
11078;SDS011;5592;49.234;7.268;2023-04-12T02:49:52;3.03;;;1.67;;
11078;SDS011;5592;49.234;7.268;2023-04-12T02:52:17;4.20;;;1.87;;
11078;SDS011;5592;49.234;7.268;2023-04-12T02:54:43;3.53;;;1.67;;
11078;SDS011;5592;49.234;7.268;2023-04-12T02:57:09;4.27;;;2.00;;
11078;SDS011;5592;49.234;7.268;2023-04-12T02:59:35;1.77;;;1.50;;
11078;SDS011;5592;49.234;7.268;2023-04-12T03:02:01;4.43;;;2.00;;
11078;SDS011;5592;49.234;7.268;2023-04-12T03:04:26;3.50;;;2.00;;
11078;SDS011;5592;49.234;7.268;2023-04-12T03:06:55;2.40;;;1.80;;
11078;SDS011;5592;49.234;7.268;2023-04-12T03:09:20;8.13;;;2.10;;
11078;SDS011;5592;49.234;7.268;2023-04-12T03:11:46;7.57;;;2.03;;
11078;SDS011;5592;49.234;7.268;2023-04-12T03:14:12;4.27;;;1.60;;
11078;SDS011;5592;49.234;7.268;2023-04-12T03:16:38;5.23;;;1.63;;
11078;SDS011;5592;49.234;7.268;2023-04-12T03:19:03;4.70;;;1.60;;
11078;SDS011;5592;49.234;7.268;2023-04-12T03:21:30;3.10;;;1.23;;
11078;SDS011;5592;49.234;7.268;2023-04-12T03:23:57;4.13;;;1.93;;
11078;SDS011;5592;49.234;7.268;2023-04-12T03:26:23;2.80;;;1.77;;
11078;SDS011;5592;49.234;7.268;2023-04-12T03:28:50;3.03;;;1.80;;
11078;SDS011;5592;49.234;7.268;2023-04-12T03:31:24;2.00;;;1.73;;
11078;SDS011;5592;49.234;7.268;2023-04-12T03:33:51;3.27;;;1.50;;
11078;SDS011;5592;49.234;7.268;2023-04-12T03:36:17;2.07;;;1.53;;
11078;SDS011;5592;49.234;7.268;2023-04-12T03:38:44;6.27;;;1.70;;
11078;SDS011;5592;49.234;7.268;2023-04-12T03:41:10;3.83;;;1.87;;
11078;SDS011;5592;49.234;7.268;2023-04-12T03:43:35;4.67;;;1.90;;
11078;SDS011;5592;49.234;7.268;2023-04-12T03:46:04;3.57;;;1.73;;
11078;SDS011;5592;49.234;7.268;2023-04-12T03:48:30;3.23;;;1.93;;
11078;SDS011;5592;49.234;7.268;2023-04-12T03:50:56;2.40;;;1.80;;
11078;SDS011;5592;49.234;7.268;2023-04-12T03:53:24;3.23;;;2.00;;
11078;SDS011;5592;49.234;7.268;2023-04-12T03:55:54;5.80;;;1.90;;
11078;SDS011;5592;49.234;7.268;2023-04-12T03:58:20;2.53;;;1.83;;
11078;SDS011;5592;49.234;7.268;2023-04-12T04:00:45;2.57;;;2.00;;
11078;SDS011;5592;49.234;7.268;2023-04-12T04:03:13;4.60;;;1.70;;
11078;SDS011;5592;49.234;7.268;2023-04-12T04:05:39;3.77;;;1.90;;
11078;SDS011;5592;49.234;7.268;2023-04-12T04:08:05;9.10;;;1.40;;
11078;SDS011;5592;49.234;7.268;2023-04-12T04:10:32;8.80;;;1.70;;
11078;SDS011;5592;49.234;7.268;2023-04-12T04:12:57;1.90;;;1.53;;
11078;SDS011;5592;49.234;7.268;2023-04-12T04:15:24;2.70;;;1.77;;
11078;SDS011;5592;49.234;7.268;2023-04-12T04:17:50;4.10;;;2.10;;
11078;SDS011;5592;49.234;7.268;2023-04-12T04:20:16;2.40;;;1.70;;
11078;SDS011;5592;49.234;7.268;2023-04-12T04:22:42;6.17;;;2.10;;
11078;SDS011;5592;49.234;7.268;2023-04-12T04:25:09;1.70;;;1.50;;
11078;SDS011;5592;49.234;7.268;2023-04-12T04:27:38;2.87;;;1.97;;
11078;SDS011;5592;49.234;7.268;2023-04-12T04:30:04;3.23;;;1.90;;
11078;SDS011;5592;49.234;7.268;2023-04-12T04:32:31;3.10;;;2.20;;
11078;SDS011;5592;49.234;7.268;2023-04-12T04:34:57;8.20;;;2.50;;
11078;SDS011;5592;49.234;7.268;2023-04-12T04:37:24;3.23;;;1.90;;
11078;SDS011;5592;49.234;7.268;2023-04-12T04:39:50;3.07;;;1.87;;
11078;SDS011;5592;49.234;7.268;2023-04-12T04:42:15;9.10;;;2.70;;
11078;SDS011;5592;49.234;7.268;2023-04-12T04:44:41;3.50;;;1.80;;
11078;SDS011;5592;49.234;7.268;2023-04-12T04:47:07;3.93;;;2.00;;
11078;SDS011;5592;49.234;7.268;2023-04-12T04:49:34;3.00;;;2.27;;
11078;SDS011;5592;49.234;7.268;2023-04-12T04:52:00;6.93;;;2.27;;
11078;SDS011;5592;49.234;7.268;2023-04-12T04:54:27;4.20;;;1.80;;
11078;SDS011;5592;49.234;7.268;2023-04-12T04:56:52;3.77;;;2.37;;
11078;SDS011;5592;49.234;7.268;2023-04-12T04:59:18;4.57;;;2.23;;
11078;SDS011;5592;49.234;7.268;2023-04-12T05:01:44;5.37;;;2.50;;
11078;SDS011;5592;49.234;7.268;2023-04-12T05:04:10;5.40;;;2.57;;
11078;SDS011;5592;49.234;7.268;2023-04-12T05:06:35;4.77;;;2.30;;
11078;SDS011;5592;49.234;7.268;2023-04-12T05:09:01;5.90;;;2.10;;
11078;SDS011;5592;49.234;7.268;2023-04-12T05:11:27;2.80;;;1.70;;
11078;SDS011;5592;49.234;7.268;2023-04-12T05:13:52;4.60;;;1.87;;
11078;SDS011;5592;49.234;7.268;2023-04-12T05:16:18;3.80;;;2.00;;
11078;SDS011;5592;49.234;7.268;2023-04-12T05:18:43;7.10;;;2.57;;
11078;SDS011;5592;49.234;7.268;2023-04-12T05:21:09;4.20;;;2.10;;
11078;SDS011;5592;49.234;7.268;2023-04-12T05:23:35;2.90;;;2.40;;
11078;SDS011;5592;49.234;7.268;2023-04-12T05:26:01;8.33;;;2.33;;
11078;SDS011;5592;49.234;7.268;2023-04-12T05:28:27;5.10;;;2.13;;
11078;SDS011;5592;49.234;7.268;2023-04-12T05:30:53;3.37;;;1.80;;
11078;SDS011;5592;49.234;7.268;2023-04-12T05:33:18;9.23;;;2.07;;
11078;SDS011;5592;49.234;7.268;2023-04-12T05:35:44;6.50;;;2.67;;
11078;SDS011;5592;49.234;7.268;2023-04-12T05:38:10;6.27;;;2.30;;
11078;SDS011;5592;49.234;7.268;2023-04-12T05:40:35;6.93;;;2.47;;
11078;SDS011;5592;49.234;7.268;2023-04-12T05:43:01;3.57;;;2.13;;
11078;SDS011;5592;49.234;7.268;2023-04-12T05:45:27;7.03;;;2.10;;
11078;SDS011;5592;49.234;7.268;2023-04-12T05:47:53;2.37;;;1.70;;
11078;SDS011;5592;49.234;7.268;2023-04-12T05:50:19;6.50;;;2.20;;
11078;SDS011;5592;49.234;7.268;2023-04-12T05:52:45;5.60;;;2.73;;
11078;SDS011;5592;49.234;7.268;2023-04-12T05:55:12;5.50;;;1.93;;
11078;SDS011;5592;49.234;7.268;2023-04-12T05:57:38;7.70;;;2.50;;
11078;SDS011;5592;49.234;7.268;2023-04-12T06:00:04;2.10;;;1.80;;
11078;SDS011;5592;49.234;7.268;2023-04-12T06:02:49;4.93;;;2.70;;
11078;SDS011;5592;49.234;7.268;2023-04-12T06:05:15;6.73;;;2.20;;
11078;SDS011;5592;49.234;7.268;2023-04-12T06:07:42;4.50;;;2.20;;
11078;SDS011;5592;49.234;7.268;2023-04-12T06:10:10;10.83;;;2.10;;
11078;SDS011;5592;49.234;7.268;2023-04-12T06:12:37;7.70;;;2.43;;
11078;SDS011;5592;49.234;7.268;2023-04-12T06:15:05;4.60;;;2.20;;
11078;SDS011;5592;49.234;7.268;2023-04-12T06:17:31;3.90;;;2.00;;
11078;SDS011;5592;49.234;7.268;2023-04-12T06:19:57;7.60;;;2.20;;
11078;SDS011;5592;49.234;7.268;2023-04-12T06:22:22;10.80;;;2.30;;
11078;SDS011;5592;49.234;7.268;2023-04-12T06:24:48;7.10;;;2.20;;
11078;SDS011;5592;49.234;7.268;2023-04-12T06:27:13;2.70;;;1.80;;
11078;SDS011;5592;49.234;7.268;2023-04-12T06:29:39;5.10;;;2.10;;
11078;SDS011;5592;49.234;7.268;2023-04-12T06:32:05;9.00;;;2.33;;
11078;SDS011;5592;49.234;7.268;2023-04-12T06:34:30;4.67;;;2.10;;
11078;SDS011;5592;49.234;7.268;2023-04-12T06:36:56;9.30;;;2.30;;
11078;SDS011;5592;49.234;7.268;2023-04-12T06:39:21;8.70;;;2.80;;
11078;SDS011;5592;49.234;7.268;2023-04-12T06:41:47;7.07;;;2.40;;
11078;SDS011;5592;49.234;7.268;2023-04-12T06:44:14;12.83;;;2.37;;
11078;SDS011;5592;49.234;7.268;2023-04-12T06:46:40;6.87;;;2.20;;
11078;SDS011;5592;49.234;7.268;2023-04-12T06:49:05;5.23;;;2.37;;
11078;SDS011;5592;49.234;7.268;2023-04-12T06:51:31;4.40;;;2.07;;
11078;SDS011;5592;49.234;7.268;2023-04-12T06:53:58;4.60;;;2.47;;
11078;SDS011;5592;49.234;7.268;2023-04-12T06:56:24;6.27;;;2.57;;
11078;SDS011;5592;49.234;7.268;2023-04-12T06:58:49;5.00;;;2.20;;
11078;SDS011;5592;49.234;7.268;2023-04-12T07:01:15;8.50;;;2.23;;
11078;SDS011;5592;49.234;7.268;2023-04-12T07:03:41;6.00;;;2.40;;
11078;SDS011;5592;49.234;7.268;2023-04-12T07:06:07;3.20;;;2.00;;
11078;SDS011;5592;49.234;7.268;2023-04-12T07:08:33;3.90;;;2.33;;
11078;SDS011;5592;49.234;7.268;2023-04-12T07:11:00;8.73;;;2.37;;
11078;SDS011;5592;49.234;7.268;2023-04-12T07:13:26;4.00;;;2.23;;
11078;SDS011;5592;49.234;7.268;2023-04-12T07:15:52;6.57;;;2.40;;
11078;SDS011;5592;49.234;7.268;2023-04-12T07:18:20;5.50;;;2.40;;
11078;SDS011;5592;49.234;7.268;2023-04-12T07:20:49;11.90;;;2.50;;
11078;SDS011;5592;49.234;7.268;2023-04-12T07:23:18;7.87;;;2.37;;
11078;SDS011;5592;49.234;7.268;2023-04-12T07:25:44;8.50;;;2.47;;
11078;SDS011;5592;49.234;7.268;2023-04-12T07:28:09;7.07;;;2.77;;
11078;SDS011;5592;49.234;7.268;2023-04-12T07:30:37;10.80;;;3.10;;
11078;SDS011;5592;49.234;7.268;2023-04-12T07:33:03;8.37;;;2.60;;
11078;SDS011;5592;49.234;7.268;2023-04-12T07:35:29;3.20;;;1.73;;
11078;SDS011;5592;49.234;7.268;2023-04-12T07:37:56;5.30;;;2.60;;
11078;SDS011;5592;49.234;7.268;2023-04-12T07:40:22;5.33;;;2.27;;
11078;SDS011;5592;49.234;7.268;2023-04-12T07:42:48;9.47;;;2.70;;
11078;SDS011;5592;49.234;7.268;2023-04-12T07:45:13;7.87;;;2.80;;
11078;SDS011;5592;49.234;7.268;2023-04-12T07:47:39;5.90;;;2.60;;
11078;SDS011;5592;49.234;7.268;2023-04-12T07:50:05;6.63;;;2.57;;
11078;SDS011;5592;49.234;7.268;2023-04-12T07:52:31;9.30;;;2.73;;
11078;SDS011;5592;49.234;7.268;2023-04-12T07:54:56;5.40;;;2.60;;
11078;SDS011;5592;49.234;7.268;2023-04-12T07:57:22;8.43;;;2.73;;
11078;SDS011;5592;49.234;7.268;2023-04-12T07:59:48;5.93;;;2.87;;
11078;SDS011;5592;49.234;7.268;2023-04-12T08:02:14;5.10;;;2.30;;
11078;SDS011;5592;49.234;7.268;2023-04-12T08:04:48;5.67;;;2.43;;
11078;SDS011;5592;49.234;7.268;2023-04-12T08:07:17;8.47;;;2.57;;
11078;SDS011;5592;49.234;7.268;2023-04-12T08:09:43;7.27;;;2.63;;
11078;SDS011;5592;49.234;7.268;2023-04-12T08:12:09;5.73;;;2.20;;
11078;SDS011;5592;49.234;7.268;2023-04-12T08:14:35;6.50;;;2.63;;
11078;SDS011;5592;49.234;7.268;2023-04-12T08:17:01;13.90;;;3.17;;
11078;SDS011;5592;49.234;7.268;2023-04-12T08:19:26;5.73;;;2.73;;
11078;SDS011;5592;49.234;7.268;2023-04-12T08:21:52;3.03;;;2.40;;
11078;SDS011;5592;49.234;7.268;2023-04-12T08:24:17;5.57;;;2.20;;
11078;SDS011;5592;49.234;7.268;2023-04-12T08:26:44;5.90;;;2.50;;
11078;SDS011;5592;49.234;7.268;2023-04-12T08:29:10;5.80;;;2.23;;
11078;SDS011;5592;49.234;7.268;2023-04-12T08:31:36;10.00;;;2.80;;
11078;SDS011;5592;49.234;7.268;2023-04-12T08:34:02;4.57;;;2.10;;
11078;SDS011;5592;49.234;7.268;2023-04-12T08:36:27;5.80;;;2.10;;
11078;SDS011;5592;49.234;7.268;2023-04-12T08:38:56;6.60;;;2.90;;
11078;SDS011;5592;49.234;7.268;2023-04-12T08:41:23;4.83;;;2.70;;
11078;SDS011;5592;49.234;7.268;2023-04-12T08:43:49;6.03;;;2.43;;
11078;SDS011;5592;49.234;7.268;2023-04-12T08:46:16;3.90;;;2.10;;
11078;SDS011;5592;49.234;7.268;2023-04-12T08:48:45;8.03;;;2.63;;
11078;SDS011;5592;49.234;7.268;2023-04-12T08:51:15;6.10;;;2.30;;
11078;SDS011;5592;49.234;7.268;2023-04-12T08:53:41;7.43;;;2.53;;
11078;SDS011;5592;49.234;7.268;2023-04-12T08:56:08;5.40;;;2.57;;
11078;SDS011;5592;49.234;7.268;2023-04-12T08:58:38;4.80;;;2.90;;
11078;SDS011;5592;49.234;7.268;2023-04-12T09:01:12;5.10;;;2.37;;
11078;SDS011;5592;49.234;7.268;2023-04-12T09:03:39;6.43;;;2.43;;
11078;SDS011;5592;49.234;7.268;2023-04-12T09:06:08;3.00;;;2.30;;
11078;SDS011;5592;49.234;7.268;2023-04-12T09:08:34;2.70;;;1.80;;
11078;SDS011;5592;49.234;7.268;2023-04-12T09:11:01;8.03;;;2.10;;
11078;SDS011;5592;49.234;7.268;2023-04-12T09:13:44;5.03;;;2.40;;
11078;SDS011;5592;49.234;7.268;2023-04-12T09:16:10;4.17;;;2.10;;
11078;SDS011;5592;49.234;7.268;2023-04-12T09:18:46;5.53;;;1.80;;
11078;SDS011;5592;49.234;7.268;2023-04-12T09:21:16;5.53;;;1.80;;
11078;SDS011;5592;49.234;7.268;2023-04-12T09:23:42;4.90;;;2.87;;
11078;SDS011;5592;49.234;7.268;2023-04-12T09:26:08;4.10;;;2.00;;
11078;SDS011;5592;49.234;7.268;2023-04-12T09:28:50;3.23;;;2.13;;
11078;SDS011;5592;49.234;7.268;2023-04-12T09:31:15;3.57;;;2.20;;
11078;SDS011;5592;49.234;7.268;2023-04-12T09:33:41;4.00;;;2.07;;
11078;SDS011;5592;49.234;7.268;2023-04-12T09:36:07;6.73;;;2.00;;
11078;SDS011;5592;49.234;7.268;2023-04-12T09:38:40;6.70;;;2.40;;
11078;SDS011;5592;49.234;7.268;2023-04-12T09:41:23;6.90;;;2.40;;
11078;SDS011;5592;49.234;7.268;2023-04-12T09:43:54;3.67;;;2.27;;
11078;SDS011;5592;49.234;7.268;2023-04-12T09:46:20;2.90;;;1.97;;
11078;SDS011;5592;49.234;7.268;2023-04-12T09:48:50;4.77;;;2.10;;
11078;SDS011;5592;49.234;7.268;2023-04-12T09:51:27;5.93;;;2.00;;
11078;SDS011;5592;49.234;7.268;2023-04-12T09:53:57;2.07;;;1.50;;
11078;SDS011;5592;49.234;7.268;2023-04-12T09:56:30;2.03;;;1.77;;
11078;SDS011;5592;49.234;7.268;2023-04-12T09:59:01;4.40;;;1.73;;
11078;SDS011;5592;49.234;7.268;2023-04-12T10:01:29;4.63;;;1.97;;
11078;SDS011;5592;49.234;7.268;2023-04-12T10:04:00;5.17;;;2.00;;
11078;SDS011;5592;49.234;7.268;2023-04-12T10:06:33;5.73;;;1.93;;
11078;SDS011;5592;49.234;7.268;2023-04-12T10:09:00;2.67;;;1.43;;
11078;SDS011;5592;49.234;7.268;2023-04-12T10:11:28;4.70;;;1.60;;
11078;SDS011;5592;49.234;7.268;2023-04-12T10:13:55;4.20;;;1.90;;
11078;SDS011;5592;49.234;7.268;2023-04-12T10:16:21;2.50;;;1.63;;
11078;SDS011;5592;49.234;7.268;2023-04-12T10:18:46;3.97;;;1.87;;
11078;SDS011;5592;49.234;7.268;2023-04-12T10:21:13;6.73;;;1.63;;
11078;SDS011;5592;49.234;7.268;2023-04-12T10:23:42;4.70;;;1.90;;
11078;SDS011;5592;49.234;7.268;2023-04-12T10:26:09;6.20;;;1.70;;
11078;SDS011;5592;49.234;7.268;2023-04-12T10:28:36;3.03;;;1.40;;
11078;SDS011;5592;49.234;7.268;2023-04-12T10:31:25;2.93;;;1.67;;
11078;SDS011;5592;49.234;7.268;2023-04-12T10:33:54;2.43;;;1.63;;
11078;SDS011;5592;49.234;7.268;2023-04-12T10:36:24;1.80;;;1.50;;
11078;SDS011;5592;49.234;7.268;2023-04-12T10:42:16;3.23;;;1.80;;
11078;SDS011;5592;49.234;7.268;2023-04-12T10:45:34;3.63;;;1.50;;
11078;SDS011;5592;49.234;7.268;2023-04-12T10:50:26;4.93;;;1.73;;
11078;SDS011;5592;49.234;7.268;2023-04-12T10:55:49;5.83;;;1.80;;
11078;SDS011;5592;49.234;7.268;2023-04-12T11:01:11;3.00;;;1.70;;
11078;SDS011;5592;49.234;7.268;2023-04-12T11:04:03;6.37;;;1.77;;
11078;SDS011;5592;49.234;7.268;2023-04-12T11:19:37;15.23;;;2.70;;
11078;SDS011;5592;49.234;7.268;2023-04-12T11:22:05;4.23;;;1.90;;
11078;SDS011;5592;49.234;7.268;2023-04-12T11:24:33;4.87;;;1.80;;
11078;SDS011;5592;49.234;7.268;2023-04-12T11:27:07;1.60;;;1.43;;
11078;SDS011;5592;49.234;7.268;2023-04-12T11:29:33;4.90;;;2.37;;
11078;SDS011;5592;49.234;7.268;2023-04-12T11:32:03;4.53;;;1.60;;
11078;SDS011;5592;49.234;7.268;2023-04-12T11:34:34;3.03;;;1.57;;
11078;SDS011;5592;49.234;7.268;2023-04-12T11:37:01;3.10;;;1.53;;
11078;SDS011;5592;49.234;7.268;2023-04-12T11:39:32;2.40;;;1.43;;
11078;SDS011;5592;49.234;7.268;2023-04-12T11:42:02;2.13;;;1.30;;
11078;SDS011;5592;49.234;7.268;2023-04-12T11:44:28;2.60;;;1.53;;
11078;SDS011;5592;49.234;7.268;2023-04-12T11:46:56;1.90;;;1.37;;
11078;SDS011;5592;49.234;7.268;2023-04-12T11:49:22;3.40;;;1.37;;
11078;SDS011;5592;49.234;7.268;2023-04-12T11:51:48;2.50;;;1.17;;
11078;SDS011;5592;49.234;7.268;2023-04-12T11:54:14;3.27;;;1.33;;
11078;SDS011;5592;49.234;7.268;2023-04-12T11:56:40;4.83;;;1.43;;
11078;SDS011;5592;49.234;7.268;2023-04-12T11:59:06;1.90;;;1.20;;
11078;SDS011;5592;49.234;7.268;2023-04-12T12:01:35;1.73;;;1.10;;
11078;SDS011;5592;49.234;7.268;2023-04-12T12:04:01;2.60;;;1.30;;
11078;SDS011;5592;49.234;7.268;2023-04-12T12:06:28;2.83;;;1.30;;
11078;SDS011;5592;49.234;7.268;2023-04-12T12:08:55;1.90;;;1.30;;
11078;SDS011;5592;49.234;7.268;2023-04-12T12:11:21;3.73;;;1.50;;
11078;SDS011;5592;49.234;7.268;2023-04-12T12:13:51;1.53;;;1.00;;
11078;SDS011;5592;49.234;7.268;2023-04-12T12:16:22;1.80;;;1.00;;
11078;SDS011;5592;49.234;7.268;2023-04-12T12:18:53;1.10;;;0.80;;
11078;SDS011;5592;49.234;7.268;2023-04-12T12:21:19;3.43;;;1.27;;
11078;SDS011;5592;49.234;7.268;2023-04-12T12:23:45;2.30;;;1.00;;
11078;SDS011;5592;49.234;7.268;2023-04-12T12:26:18;2.23;;;1.10;;
11078;SDS011;5592;49.234;7.268;2023-04-12T12:28:52;1.07;;;0.80;;
11078;SDS011;5592;49.234;7.268;2023-04-12T12:31:19;0.90;;;0.83;;
11078;SDS011;5592;49.234;7.268;2023-04-12T12:33:46;1.03;;;0.93;;
11078;SDS011;5592;49.234;7.268;2023-04-12T12:36:12;1.33;;;0.80;;
11078;SDS011;5592;49.234;7.268;2023-04-12T12:38:42;3.03;;;1.00;;
11078;SDS011;5592;49.234;7.268;2023-04-12T12:41:15;2.60;;;0.87;;
11078;SDS011;5592;49.234;7.268;2023-04-12T12:43:45;0.87;;;0.70;;
11078;SDS011;5592;49.234;7.268;2023-04-12T12:46:11;1.37;;;0.70;;
11078;SDS011;5592;49.234;7.268;2023-04-12T12:48:38;0.80;;;0.70;;
11078;SDS011;5592;49.234;7.268;2023-04-12T12:51:10;1.57;;;0.70;;
11078;SDS011;5592;49.234;7.268;2023-04-12T12:53:36;0.90;;;0.70;;
11078;SDS011;5592;49.234;7.268;2023-04-12T12:56:06;3.47;;;0.70;;
11078;SDS011;5592;49.234;7.268;2023-04-12T12:58:34;0.77;;;0.60;;
11078;SDS011;5592;49.234;7.268;2023-04-12T13:00:59;0.80;;;0.77;;
11078;SDS011;5592;49.234;7.268;2023-04-12T13:03:25;0.80;;;0.70;;
11078;SDS011;5592;49.234;7.268;2023-04-12T13:05:50;0.70;;;0.60;;
11078;SDS011;5592;49.234;7.268;2023-04-12T13:08:16;0.63;;;0.60;;
11078;SDS011;5592;49.234;7.268;2023-04-12T13:10:42;1.10;;;0.70;;
11078;SDS011;5592;49.234;7.268;2023-04-12T13:13:08;0.77;;;0.60;;
11078;SDS011;5592;49.234;7.268;2023-04-12T13:15:34;1.43;;;0.80;;
11078;SDS011;5592;49.234;7.268;2023-04-12T13:17:59;1.37;;;0.70;;
11078;SDS011;5592;49.234;7.268;2023-04-12T13:20:25;0.60;;;0.50;;
11078;SDS011;5592;49.234;7.268;2023-04-12T13:22:53;0.87;;;0.60;;
11078;SDS011;5592;49.234;7.268;2023-04-12T13:25:19;1.43;;;0.67;;
11078;SDS011;5592;49.234;7.268;2023-04-12T13:27:48;2.13;;;1.00;;
11078;SDS011;5592;49.234;7.268;2023-04-12T13:30:16;1.03;;;0.63;;
11078;SDS011;5592;49.234;7.268;2023-04-12T13:32:43;0.87;;;0.63;;
11078;SDS011;5592;49.234;7.268;2023-04-12T13:35:09;0.70;;;0.70;;
11078;SDS011;5592;49.234;7.268;2023-04-12T13:37:35;1.20;;;0.70;;
11078;SDS011;5592;49.234;7.268;2023-04-12T13:40:01;3.57;;;0.90;;
11078;SDS011;5592;49.234;7.268;2023-04-12T13:42:27;0.97;;;0.70;;
11078;SDS011;5592;49.234;7.268;2023-04-12T13:44:52;2.20;;;0.80;;
11078;SDS011;5592;49.234;7.268;2023-04-12T13:47:18;0.70;;;0.70;;
11078;SDS011;5592;49.234;7.268;2023-04-12T13:49:43;0.90;;;0.70;;
11078;SDS011;5592;49.234;7.268;2023-04-12T13:52:09;0.97;;;0.90;;
11078;SDS011;5592;49.234;7.268;2023-04-12T13:54:38;1.23;;;0.60;;
11078;SDS011;5592;49.234;7.268;2023-04-12T13:57:04;1.00;;;0.90;;
11078;SDS011;5592;49.234;7.268;2023-04-12T13:59:31;3.40;;;0.90;;
11078;SDS011;5592;49.234;7.268;2023-04-12T14:01:57;1.60;;;0.83;;
11078;SDS011;5592;49.234;7.268;2023-04-12T14:04:22;1.07;;;0.90;;
11078;SDS011;5592;49.234;7.268;2023-04-12T14:06:51;0.80;;;0.80;;
11078;SDS011;5592;49.234;7.268;2023-04-12T14:09:24;1.77;;;0.70;;
11078;SDS011;5592;49.234;7.268;2023-04-12T14:11:51;0.90;;;0.90;;
11078;SDS011;5592;49.234;7.268;2023-04-12T14:14:22;3.03;;;0.90;;
11078;SDS011;5592;49.234;7.268;2023-04-12T14:16:48;2.47;;;0.97;;
11078;SDS011;5592;49.234;7.268;2023-04-12T14:19:16;0.60;;;0.60;;
11078;SDS011;5592;49.234;7.268;2023-04-12T14:21:41;1.10;;;0.80;;
11078;SDS011;5592;49.234;7.268;2023-04-12T14:24:07;1.37;;;0.87;;
11078;SDS011;5592;49.234;7.268;2023-04-12T14:26:32;0.60;;;0.60;;
11078;SDS011;5592;49.234;7.268;2023-04-12T14:28:58;1.03;;;0.70;;
11078;SDS011;5592;49.234;7.268;2023-04-12T14:31:24;1.20;;;0.80;;
11078;SDS011;5592;49.234;7.268;2023-04-12T14:33:49;0.63;;;0.60;;
11078;SDS011;5592;49.234;7.268;2023-04-12T14:36:16;1.90;;;0.60;;
11078;SDS011;5592;49.234;7.268;2023-04-12T14:38:41;0.63;;;0.60;;
11078;SDS011;5592;49.234;7.268;2023-04-12T14:41:08;1.27;;;0.77;;
11078;SDS011;5592;49.234;7.268;2023-04-12T14:43:33;0.70;;;0.60;;
11078;SDS011;5592;49.234;7.268;2023-04-12T14:45:59;3.23;;;0.77;;
11078;SDS011;5592;49.234;7.268;2023-04-12T14:48:24;0.60;;;0.60;;
11078;SDS011;5592;49.234;7.268;2023-04-12T14:50:50;0.80;;;0.80;;
11078;SDS011;5592;49.234;7.268;2023-04-12T14:53:16;2.20;;;0.70;;
11078;SDS011;5592;49.234;7.268;2023-04-12T14:55:43;2.40;;;0.80;;
11078;SDS011;5592;49.234;7.268;2023-04-12T14:58:10;1.20;;;0.80;;
11078;SDS011;5592;49.234;7.268;2023-04-12T15:00:36;0.90;;;0.70;;
11078;SDS011;5592;49.234;7.268;2023-04-12T15:03:02;0.90;;;0.70;;
11078;SDS011;5592;49.234;7.268;2023-04-12T15:05:29;0.60;;;0.60;;
11078;SDS011;5592;49.234;7.268;2023-04-12T15:07:54;0.87;;;0.60;;
11078;SDS011;5592;49.234;7.268;2023-04-12T15:10:21;1.13;;;0.80;;
11078;SDS011;5592;49.234;7.268;2023-04-12T15:12:47;1.90;;;0.80;;
11078;SDS011;5592;49.234;7.268;2023-04-12T15:15:13;1.00;;;0.60;;
11078;SDS011;5592;49.234;7.268;2023-04-12T15:17:39;1.23;;;0.60;;
11078;SDS011;5592;49.234;7.268;2023-04-12T15:20:05;1.33;;;0.73;;
11078;SDS011;5592;49.234;7.268;2023-04-12T15:22:35;1.13;;;0.70;;
11078;SDS011;5592;49.234;7.268;2023-04-12T15:25:01;0.60;;;0.60;;
11078;SDS011;5592;49.234;7.268;2023-04-12T15:27:28;1.20;;;0.80;;
11078;SDS011;5592;49.234;7.268;2023-04-12T15:29:55;1.73;;;1.37;;
11078;SDS011;5592;49.234;7.268;2023-04-12T15:32:27;1.03;;;0.60;;
11078;SDS011;5592;49.234;7.268;2023-04-12T15:34:53;1.00;;;0.80;;
11078;SDS011;5592;49.234;7.268;2023-04-12T15:37:22;0.80;;;0.70;;